This is the latest recevied weather packets stored in our database for station/object NZ3C. If no packets are shown the sender has not sent any weather packets the latest 10 day(s).
| Time | Temp. | Humidity | Pressure | Rain* | Wind** | Luminosity | Snow |
|---|---|---|---|---|---|---|---|
| 1777480152 | 20.56° C | 72% | 1014.5 hPa | 0 mm | - | 112 W/m² | - |
| 1777479849 | 20.56° C | 72% | 1014.7 hPa | 0 mm | - | 120 W/m² | - |
| 1777479545 | 20.56° C | 71% | 1014.6 hPa | 0 mm | - | 117 W/m² | - |
| 1777479242 | 20.56° C | 70% | 1015 hPa | 0 mm | - | 103 W/m² | - |
| 1777478939 | 20.56° C | 71% | 1015.1 hPa | 0 mm | - | 138 W/m² | - |
| 1777478636 | 20.56° C | 70% | 1014.7 hPa | 0 mm | - | 170 W/m² | - |
| 1777478333 | 20.56° C | 70% | 1015.1 hPa | 0 mm | - | 165 W/m² | - |
| 1777478029 | 21.11° C | 68% | 1015.1 hPa | 0 mm | - | 141 W/m² | - |
| 1777477724 | 21.11° C | 68% | 1015.1 hPa | 0 mm | - | 177 W/m² | - |
| 1777477422 | 21.11° C | 67% | 1015 hPa | 0 mm | - | 235 W/m² | - |
| 1777477118 | 21.11° C | 69% | 1015 hPa | 0 mm | - | 239 W/m² | - |
| 1777476815 | 21.11° C | 68% | 1015.2 hPa | 0 mm | - | 177 W/m² | - |
| 1777476513 | 21.11° C | 67% | 1015.1 hPa | 0 mm | - | 176 W/m² | - |
| 1777476209 | 21.11° C | 67% | 1014.9 hPa | 0 mm | - | 139 W/m² | - |
| 1777475904 | 21.67° C | 67% | 1015.2 hPa | 0 mm | - | 133 W/m² | - |
| 1777475600 | 22.22° C | 64% | 1015.4 hPa | 0 mm | - | 115 W/m² | - |
| 1777475297 | 22.78° C | 62% | 1015.2 hPa | 0 mm | - | 258 W/m² | - |
| 1777474992 | 22.78° C | 62% | 1015.1 hPa | 0 mm | - | 500 W/m² | - |
| 1777474689 | 22.78° C | 62% | 1015.1 hPa | 0 mm | - | 573 W/m² | - |
| 1777474385 | 23.33° C | 60% | 1015.3 hPa | 0 mm | - | 519 W/m² | - |
| 1777474081 | 23.33° C | 60% | 1015.2 hPa | 0 mm | - | 541 W/m² | - |
| 1777473780 | 22.78° C | 61% | 1015.5 hPa | 0 mm | - | 621 W/m² | - |
| 1777473476 | 22.22° C | 61% | 1015.4 hPa | 0 mm | - | 688 W/m² | - |
| 1777473172 | 22.22° C | 64% | 1015.6 hPa | 0 mm | - | 352 W/m² | - |
| 1777472869 | 22.22° C | 64% | 1015.6 hPa | 0 mm | - | 464 W/m² | - |
* Rain latest hour (hover to see other rain measurements)
** Current wind speed in m/s (hover to see current wind gust speed)